Terminal Aerodrome Forecast
Issued by NWS Portland, ME

Home | Current Version | Previous Version | Text Only | Print | Product List | Glossary On
Versions: 1 2 3 4 5 6 7 8 9 10 11 12 13 14 15
000
FTUS41 KGYX 231100
TAFPWM
TAF
KPWM 231120Z 2312/2412 24008KT P6SM SKC
     FM231600 21009G16KT P6SM FEW060 SCT250
     FM240000 23010KT 5SM -TSRA BKN050CB
     FM240600 30005KT P6SM BKN100=

USA.gov is the U.S. government's official web portal to all federal, state and local government web resources and services.